Oriskany, Virginia
Current Conditions -  °F | °C
As of 7:54 PM on Wednesday 22 Oct 2014 (Local Time) from KROA Reporting Station
Few Clouds Few Clouds  
Wind Chill: 52°   Ceiling: Unl
Heat Index: 52°   Visibility: 10mi
Dew Point: 38°   Wind: 8mph
Humidity: 59%   Direction: 270°W
Pressure: 30.08"   Gusts: NA
Location:  37.62°N, 79.98°W
Report Text: KROA 222354Z 27007KT 10SM FEW038 11/03 A3008 RMK AO2 SLP185 T01110033 10161 20111 51005
Loading
Personal Weather Stations






























Interactive Weather Map
Tropical Storm Tracking
New forecast layout! Learn more

10-Day Weather Forecast

Advertisements
Track Severe Weather on mobile